sensor_id;sensor_type;location;lat;lon;timestamp;P1;durP1;ratioP1;P2;durP2;ratioP2
28529;SDS011;15737;49.760;6.632;2023-02-15T00:00:04;4.50;;;2.60;;
28529;SDS011;15737;49.760;6.632;2023-02-15T00:02:30;6.67;;;4.20;;
28529;SDS011;15737;49.760;6.632;2023-02-15T00:04:56;8.70;;;4.83;;
28529;SDS011;15737;49.760;6.632;2023-02-15T00:07:21;8.00;;;3.70;;
28529;SDS011;15737;49.760;6.632;2023-02-15T00:09:47;10.73;;;4.60;;
28529;SDS011;15737;49.760;6.632;2023-02-15T00:12:13;10.73;;;4.50;;
28529;SDS011;15737;49.760;6.632;2023-02-15T00:14:39;8.80;;;3.13;;
28529;SDS011;15737;49.760;6.632;2023-02-15T00:17:05;5.23;;;2.90;;
28529;SDS011;15737;49.760;6.632;2023-02-15T00:19:30;9.53;;;4.57;;
28529;SDS011;15737;49.760;6.632;2023-02-15T00:21:56;6.50;;;4.03;;
28529;SDS011;15737;49.760;6.632;2023-02-15T00:24:21;6.33;;;2.97;;
28529;SDS011;15737;49.760;6.632;2023-02-15T00:26:47;5.53;;;4.00;;
28529;SDS011;15737;49.760;6.632;2023-02-15T00:29:15;6.10;;;3.17;;
28529;SDS011;15737;49.760;6.632;2023-02-15T00:31:41;6.17;;;3.67;;
28529;SDS011;15737;49.760;6.632;2023-02-15T00:36:36;6.03;;;2.67;;
28529;SDS011;15737;49.760;6.632;2023-02-15T00:39:02;13.07;;;5.93;;
28529;SDS011;15737;49.760;6.632;2023-02-15T00:41:27;6.40;;;3.93;;
28529;SDS011;15737;49.760;6.632;2023-02-15T00:43:53;6.30;;;3.63;;
28529;SDS011;15737;49.760;6.632;2023-02-15T00:46:18;7.20;;;4.10;;
28529;SDS011;15737;49.760;6.632;2023-02-15T00:48:44;7.60;;;4.07;;
28529;SDS011;15737;49.760;6.632;2023-02-15T00:51:10;6.90;;;4.13;;
28529;SDS011;15737;49.760;6.632;2023-02-15T00:53:35;4.70;;;3.23;;
28529;SDS011;15737;49.760;6.632;2023-02-15T00:56:01;4.57;;;2.87;;
28529;SDS011;15737;49.760;6.632;2023-02-15T00:58:26;6.87;;;3.33;;
28529;SDS011;15737;49.760;6.632;2023-02-15T01:00:52;8.10;;;3.67;;
28529;SDS011;15737;49.760;6.632;2023-02-15T01:03:18;6.87;;;4.43;;
28529;SDS011;15737;49.760;6.632;2023-02-15T01:05:46;7.37;;;4.17;;
28529;SDS011;15737;49.760;6.632;2023-02-15T01:08:13;5.97;;;3.63;;
28529;SDS011;15737;49.760;6.632;2023-02-15T01:10:38;4.27;;;3.43;;
28529;SDS011;15737;49.760;6.632;2023-02-15T01:13:04;9.53;;;3.93;;
28529;SDS011;15737;49.760;6.632;2023-02-15T01:15:30;8.73;;;4.63;;
28529;SDS011;15737;49.760;6.632;2023-02-15T01:17:58;4.23;;;3.10;;
28529;SDS011;15737;49.760;6.632;2023-02-15T01:20:25;10.63;;;4.10;;
28529;SDS011;15737;49.760;6.632;2023-02-15T01:22:54;5.87;;;3.77;;
28529;SDS011;15737;49.760;6.632;2023-02-15T01:25:22;9.73;;;4.00;;
28529;SDS011;15737;49.760;6.632;2023-02-15T01:27:48;8.30;;;4.20;;
28529;SDS011;15737;49.760;6.632;2023-02-15T01:30:14;6.60;;;4.13;;
28529;SDS011;15737;49.760;6.632;2023-02-15T01:32:41;5.60;;;3.23;;
28529;SDS011;15737;49.760;6.632;2023-02-15T01:35:07;5.13;;;3.50;;
28529;SDS011;15737;49.760;6.632;2023-02-15T01:37:33;8.67;;;4.33;;
28529;SDS011;15737;49.760;6.632;2023-02-15T01:40:00;7.90;;;4.97;;
28529;SDS011;15737;49.760;6.632;2023-02-15T01:42:31;1.70;;;1.60;;
28529;SDS011;15737;49.760;6.632;2023-02-15T01:52:55;8.23;;;3.23;;
28529;SDS011;15737;49.760;6.632;2023-02-15T01:55:33;6.43;;;3.10;;
28529;SDS011;15737;49.760;6.632;2023-02-15T01:58:04;7.07;;;3.77;;
28529;SDS011;15737;49.760;6.632;2023-02-15T02:00:30;6.43;;;4.13;;
28529;SDS011;15737;49.760;6.632;2023-02-15T02:02:56;4.23;;;3.57;;
28529;SDS011;15737;49.760;6.632;2023-02-15T02:05:22;0.93;;;0.67;;
28529;SDS011;15737;49.760;6.632;2023-02-15T02:07:48;4.67;;;2.57;;
28529;SDS011;15737;49.760;6.632;2023-02-15T02:10:17;9.90;;;3.23;;
28529;SDS011;15737;49.760;6.632;2023-02-15T02:12:45;4.90;;;3.20;;
28529;SDS011;15737;49.760;6.632;2023-02-15T02:15:13;8.10;;;4.10;;
28529;SDS011;15737;49.760;6.632;2023-02-15T02:20:31;6.87;;;3.03;;
28529;SDS011;15737;49.760;6.632;2023-02-15T02:23:16;5.20;;;2.37;;
28529;SDS011;15737;49.760;6.632;2023-02-15T02:31:30;4.43;;;3.13;;
28529;SDS011;15737;49.760;6.632;2023-02-15T02:36:52;3.27;;;2.97;;
28529;SDS011;15737;49.760;6.632;2023-02-15T02:39:37;6.37;;;3.43;;
28529;SDS011;15737;49.760;6.632;2023-02-15T02:42:39;8.57;;;3.93;;
28529;SDS011;15737;49.760;6.632;2023-02-15T02:45:08;4.53;;;2.77;;
28529;SDS011;15737;49.760;6.632;2023-02-15T02:47:43;6.50;;;4.30;;
28529;SDS011;15737;49.760;6.632;2023-02-15T02:50:17;3.40;;;2.37;;
28529;SDS011;15737;49.760;6.632;2023-02-15T02:52:48;3.23;;;2.50;;
28529;SDS011;15737;49.760;6.632;2023-02-15T02:55:16;6.97;;;3.47;;
28529;SDS011;15737;49.760;6.632;2023-02-15T03:00:55;4.10;;;3.07;;
28529;SDS011;15737;49.760;6.632;2023-02-15T03:03:45;5.53;;;2.73;;
28529;SDS011;15737;49.760;6.632;2023-02-15T03:06:23;6.17;;;3.60;;
28529;SDS011;15737;49.760;6.632;2023-02-15T03:09:15;5.33;;;3.27;;
28529;SDS011;15737;49.760;6.632;2023-02-15T03:11:42;4.97;;;3.83;;
28529;SDS011;15737;49.760;6.632;2023-02-15T03:14:09;5.07;;;3.97;;
28529;SDS011;15737;49.760;6.632;2023-02-15T03:16:38;7.00;;;3.57;;
28529;SDS011;15737;49.760;6.632;2023-02-15T03:19:09;5.60;;;3.27;;
28529;SDS011;15737;49.760;6.632;2023-02-15T03:22:00;3.67;;;2.60;;
28529;SDS011;15737;49.760;6.632;2023-02-15T03:24:35;4.83;;;2.83;;
28529;SDS011;15737;49.760;6.632;2023-02-15T03:27:06;4.77;;;3.37;;
28529;SDS011;15737;49.760;6.632;2023-02-15T03:29:36;0.00;;;0.00;;
28529;SDS011;15737;49.760;6.632;2023-02-15T03:32:03;6.57;;;3.43;;
28529;SDS011;15737;49.760;6.632;2023-02-15T03:34:33;5.17;;;3.20;;
28529;SDS011;15737;49.760;6.632;2023-02-15T03:37:08;3.90;;;2.77;;
28529;SDS011;15737;49.760;6.632;2023-02-15T03:42:16;3.87;;;3.00;;
28529;SDS011;15737;49.760;6.632;2023-02-15T03:44:57;7.13;;;4.97;;
28529;SDS011;15737;49.760;6.632;2023-02-15T03:47:25;3.00;;;2.73;;
28529;SDS011;15737;49.760;6.632;2023-02-15T03:50:05;4.87;;;3.17;;
28529;SDS011;15737;49.760;6.632;2023-02-15T03:52:52;3.97;;;1.67;;
28529;SDS011;15737;49.760;6.632;2023-02-15T03:55:19;4.07;;;2.67;;
28529;SDS011;15737;49.760;6.632;2023-02-15T03:57:44;5.47;;;2.77;;
28529;SDS011;15737;49.760;6.632;2023-02-15T04:00:29;7.40;;;3.83;;
28529;SDS011;15737;49.760;6.632;2023-02-15T04:05:51;3.93;;;3.13;;
28529;SDS011;15737;49.760;6.632;2023-02-15T04:08:16;4.07;;;3.23;;
28529;SDS011;15737;49.760;6.632;2023-02-15T04:10:42;6.87;;;3.63;;
28529;SDS011;15737;49.760;6.632;2023-02-15T04:13:23;4.30;;;2.87;;
28529;SDS011;15737;49.760;6.632;2023-02-15T04:15:55;3.37;;;2.60;;
28529;SDS011;15737;49.760;6.632;2023-02-15T04:18:30;4.00;;;2.60;;
28529;SDS011;15737;49.760;6.632;2023-02-15T04:21:17;5.77;;;2.83;;
28529;SDS011;15737;49.760;6.632;2023-02-15T04:24:03;4.00;;;2.80;;
28529;SDS011;15737;49.760;6.632;2023-02-15T04:26:48;4.77;;;3.20;;
28529;SDS011;15737;49.760;6.632;2023-02-15T04:29:14;10.50;;;5.13;;
28529;SDS011;15737;49.760;6.632;2023-02-15T04:31:40;8.07;;;4.10;;
28529;SDS011;15737;49.760;6.632;2023-02-15T04:34:06;11.53;;;5.37;;
28529;SDS011;15737;49.760;6.632;2023-02-15T04:36:31;56.93;;;7.70;;
28529;SDS011;15737;49.760;6.632;2023-02-15T04:38:57;8.60;;;5.13;;
28529;SDS011;15737;49.760;6.632;2023-02-15T04:41:22;7.03;;;3.93;;
28529;SDS011;15737;49.760;6.632;2023-02-15T04:43:48;11.33;;;5.37;;
28529;SDS011;15737;49.760;6.632;2023-02-15T04:46:13;10.10;;;4.40;;
28529;SDS011;15737;49.760;6.632;2023-02-15T04:48:39;4.73;;;3.23;;
28529;SDS011;15737;49.760;6.632;2023-02-15T04:51:05;9.27;;;4.63;;
28529;SDS011;15737;49.760;6.632;2023-02-15T04:53:31;22.17;;;6.10;;
28529;SDS011;15737;49.760;6.632;2023-02-15T04:55:57;16.10;;;4.83;;
28529;SDS011;15737;49.760;6.632;2023-02-15T04:58:23;32.43;;;4.27;;
28529;SDS011;15737;49.760;6.632;2023-02-15T05:00:48;11.90;;;4.20;;
28529;SDS011;15737;49.760;6.632;2023-02-15T05:03:14;12.07;;;4.40;;
28529;SDS011;15737;49.760;6.632;2023-02-15T05:05:39;7.60;;;4.13;;
28529;SDS011;15737;49.760;6.632;2023-02-15T05:08:05;9.13;;;5.03;;
28529;SDS011;15737;49.760;6.632;2023-02-15T05:10:31;8.50;;;4.40;;
28529;SDS011;15737;49.760;6.632;2023-02-15T05:12:56;5.57;;;4.50;;
28529;SDS011;15737;49.760;6.632;2023-02-15T05:15:22;7.80;;;4.30;;
28529;SDS011;15737;49.760;6.632;2023-02-15T05:17:47;24.20;;;6.20;;
28529;SDS011;15737;49.760;6.632;2023-02-15T05:20:13;6.73;;;3.87;;
28529;SDS011;15737;49.760;6.632;2023-02-15T05:22:38;8.33;;;3.87;;
28529;SDS011;15737;49.760;6.632;2023-02-15T05:27:36;5.07;;;3.33;;
28529;SDS011;15737;49.760;6.632;2023-02-15T05:30:20;32.03;;;4.40;;
28529;SDS011;15737;49.760;6.632;2023-02-15T05:32:45;8.17;;;3.20;;
28529;SDS011;15737;49.760;6.632;2023-02-15T05:35:12;5.90;;;4.10;;
28529;SDS011;15737;49.760;6.632;2023-02-15T05:37:40;5.83;;;3.43;;
28529;SDS011;15737;49.760;6.632;2023-02-15T05:40:05;49.90;;;7.03;;
28529;SDS011;15737;49.760;6.632;2023-02-15T05:42:31;9.83;;;5.13;;
28529;SDS011;15737;49.760;6.632;2023-02-15T05:44:57;6.00;;;4.17;;
28529;SDS011;15737;49.760;6.632;2023-02-15T05:47:23;15.43;;;4.00;;
28529;SDS011;15737;49.760;6.632;2023-02-15T05:49:48;5.47;;;3.07;;
28529;SDS011;15737;49.760;6.632;2023-02-15T05:52:14;51.53;;;5.20;;
28529;SDS011;15737;49.760;6.632;2023-02-15T05:54:39;142.03;;;8.03;;
28529;SDS011;15737;49.760;6.632;2023-02-15T05:57:05;69.50;;;6.17;;
28529;SDS011;15737;49.760;6.632;2023-02-15T05:59:30;7.47;;;4.50;;
28529;SDS011;15737;49.760;6.632;2023-02-15T06:01:55;18.40;;;5.50;;
28529;SDS011;15737;49.760;6.632;2023-02-15T06:04:21;10.90;;;4.03;;
28529;SDS011;15737;49.760;6.632;2023-02-15T06:06:46;9.27;;;4.43;;
28529;SDS011;15737;49.760;6.632;2023-02-15T06:09:12;176.73;;;12.43;;
28529;SDS011;15737;49.760;6.632;2023-02-15T06:11:38;18.23;;;5.30;;
28529;SDS011;15737;49.760;6.632;2023-02-15T06:14:03;11.73;;;4.97;;
28529;SDS011;15737;49.760;6.632;2023-02-15T06:16:29;8.23;;;4.73;;
28529;SDS011;15737;49.760;6.632;2023-02-15T06:18:55;44.63;;;4.60;;
28529;SDS011;15737;49.760;6.632;2023-02-15T06:21:20;6.67;;;4.07;;
28529;SDS011;15737;49.760;6.632;2023-02-15T06:23:46;18.80;;;5.77;;
28529;SDS011;15737;49.760;6.632;2023-02-15T06:26:11;6.17;;;4.13;;
28529;SDS011;15737;49.760;6.632;2023-02-15T06:28:37;7.97;;;4.23;;
28529;SDS011;15737;49.760;6.632;2023-02-15T06:31:02;14.10;;;5.10;;
28529;SDS011;15737;49.760;6.632;2023-02-15T06:33:28;24.57;;;7.00;;
28529;SDS011;15737;49.760;6.632;2023-02-15T06:35:55;8.50;;;5.13;;
28529;SDS011;15737;49.760;6.632;2023-02-15T06:38:21;4.77;;;3.53;;
28529;SDS011;15737;49.760;6.632;2023-02-15T06:40:47;13.50;;;4.17;;
28529;SDS011;15737;49.760;6.632;2023-02-15T06:43:12;5.77;;;3.37;;
28529;SDS011;15737;49.760;6.632;2023-02-15T06:45:38;8.53;;;3.43;;
28529;SDS011;15737;49.760;6.632;2023-02-15T06:48:04;6.83;;;4.10;;
28529;SDS011;15737;49.760;6.632;2023-02-15T06:50:31;25.00;;;3.90;;
28529;SDS011;15737;49.760;6.632;2023-02-15T06:52:57;22.80;;;3.70;;
28529;SDS011;15737;49.760;6.632;2023-02-15T06:55:23;7.93;;;4.20;;
28529;SDS011;15737;49.760;6.632;2023-02-15T07:00:18;6.73;;;3.80;;
28529;SDS011;15737;49.760;6.632;2023-02-15T07:02:43;6.50;;;3.80;;
28529;SDS011;15737;49.760;6.632;2023-02-15T07:05:09;5.33;;;3.37;;
28529;SDS011;15737;49.760;6.632;2023-02-15T07:07:35;5.40;;;3.40;;
28529;SDS011;15737;49.760;6.632;2023-02-15T07:10:00;6.80;;;4.23;;
28529;SDS011;15737;49.760;6.632;2023-02-15T07:12:26;13.07;;;4.03;;
28529;SDS011;15737;49.760;6.632;2023-02-15T07:15:07;22.53;;;4.10;;
28529;SDS011;15737;49.760;6.632;2023-02-15T07:17:34;10.53;;;4.03;;
28529;SDS011;15737;49.760;6.632;2023-02-15T07:20:01;11.90;;;5.47;;
28529;SDS011;15737;49.760;6.632;2023-02-15T07:22:32;9.70;;;4.80;;
28529;SDS011;15737;49.760;6.632;2023-02-15T07:25:00;7.87;;;4.27;;
28529;SDS011;15737;49.760;6.632;2023-02-15T07:27:27;8.47;;;4.20;;
28529;SDS011;15737;49.760;6.632;2023-02-15T07:29:52;7.63;;;4.83;;
28529;SDS011;15737;49.760;6.632;2023-02-15T07:32:18;7.80;;;4.77;;
28529;SDS011;15737;49.760;6.632;2023-02-15T07:34:43;8.57;;;5.30;;
28529;SDS011;15737;49.760;6.632;2023-02-15T07:37:09;7.03;;;3.53;;
28529;SDS011;15737;49.760;6.632;2023-02-15T07:39:34;8.97;;;4.47;;
28529;SDS011;15737;49.760;6.632;2023-02-15T07:42:00;7.63;;;4.57;;
28529;SDS011;15737;49.760;6.632;2023-02-15T07:44:26;8.13;;;4.40;;
28529;SDS011;15737;49.760;6.632;2023-02-15T07:46:51;13.87;;;5.07;;
28529;SDS011;15737;49.760;6.632;2023-02-15T07:49:17;6.70;;;3.17;;
28529;SDS011;15737;49.760;6.632;2023-02-15T07:51:42;16.83;;;7.17;;
28529;SDS011;15737;49.760;6.632;2023-02-15T07:54:08;10.07;;;4.63;;
28529;SDS011;15737;49.760;6.632;2023-02-15T07:56:33;7.37;;;3.97;;
28529;SDS011;15737;49.760;6.632;2023-02-15T07:58:59;7.17;;;4.03;;
28529;SDS011;15737;49.760;6.632;2023-02-15T08:01:29;6.53;;;3.90;;
28529;SDS011;15737;49.760;6.632;2023-02-15T08:04:00;10.47;;;5.20;;
28529;SDS011;15737;49.760;6.632;2023-02-15T08:06:27;7.07;;;3.80;;
28529;SDS011;15737;49.760;6.632;2023-02-15T08:08:54;11.37;;;4.37;;
28529;SDS011;15737;49.760;6.632;2023-02-15T08:11:21;6.47;;;4.20;;
28529;SDS011;15737;49.760;6.632;2023-02-15T08:13:52;8.90;;;5.30;;
28529;SDS011;15737;49.760;6.632;2023-02-15T08:16:38;7.20;;;4.53;;
28529;SDS011;15737;49.760;6.632;2023-02-15T08:19:06;5.67;;;3.93;;
28529;SDS011;15737;49.760;6.632;2023-02-15T08:21:32;6.60;;;3.33;;
28529;SDS011;15737;49.760;6.632;2023-02-15T08:23:59;7.97;;;4.73;;
28529;SDS011;15737;49.760;6.632;2023-02-15T08:26:25;13.20;;;5.90;;
28529;SDS011;15737;49.760;6.632;2023-02-15T08:28:52;7.03;;;4.00;;
28529;SDS011;15737;49.760;6.632;2023-02-15T08:31:18;6.70;;;3.67;;
28529;SDS011;15737;49.760;6.632;2023-02-15T08:33:45;6.60;;;3.40;;
28529;SDS011;15737;49.760;6.632;2023-02-15T08:36:13;12.13;;;4.00;;
28529;SDS011;15737;49.760;6.632;2023-02-15T08:38:40;13.13;;;4.63;;
28529;SDS011;15737;49.760;6.632;2023-02-15T08:41:19;7.30;;;5.57;;
28529;SDS011;15737;49.760;6.632;2023-02-15T08:43:50;9.20;;;4.30;;
28529;SDS011;15737;49.760;6.632;2023-02-15T08:46:19;12.10;;;5.53;;
28529;SDS011;15737;49.760;6.632;2023-02-15T08:48:45;8.43;;;5.20;;
28529;SDS011;15737;49.760;6.632;2023-02-15T08:51:15;21.27;;;6.77;;
28529;SDS011;15737;49.760;6.632;2023-02-15T08:53:46;13.27;;;5.10;;
28529;SDS011;15737;49.760;6.632;2023-02-15T08:56:16;30.73;;;7.37;;
28529;SDS011;15737;49.760;6.632;2023-02-15T08:58:44;16.13;;;6.57;;
28529;SDS011;15737;49.760;6.632;2023-02-15T09:01:10;18.57;;;6.50;;
28529;SDS011;15737;49.760;6.632;2023-02-15T09:03:38;53.40;;;7.00;;
28529;SDS011;15737;49.760;6.632;2023-02-15T09:06:04;28.87;;;5.87;;
28529;SDS011;15737;49.760;6.632;2023-02-15T09:08:30;16.80;;;6.47;;
28529;SDS011;15737;49.760;6.632;2023-02-15T09:13:36;13.53;;;6.37;;
28529;SDS011;15737;49.760;6.632;2023-02-15T09:16:03;34.60;;;7.67;;
28529;SDS011;15737;49.760;6.632;2023-02-15T09:18:31;10.73;;;6.17;;
28529;SDS011;15737;49.760;6.632;2023-02-15T09:21:07;16.40;;;7.63;;
28529;SDS011;15737;49.760;6.632;2023-02-15T09:23:35;33.67;;;7.87;;
28529;SDS011;15737;49.760;6.632;2023-02-15T09:26:02;23.30;;;7.53;;
28529;SDS011;15737;49.760;6.632;2023-02-15T09:28:28;44.20;;;8.43;;
28529;SDS011;15737;49.760;6.632;2023-02-15T09:30:54;26.93;;;7.50;;
28529;SDS011;15737;49.760;6.632;2023-02-15T09:33:20;14.07;;;6.20;;
28529;SDS011;15737;49.760;6.632;2023-02-15T09:35:46;18.07;;;7.30;;
28529;SDS011;15737;49.760;6.632;2023-02-15T09:38:12;31.47;;;9.07;;
28529;SDS011;15737;49.760;6.632;2023-02-15T09:40:40;34.33;;;9.53;;
28529;SDS011;15737;49.760;6.632;2023-02-15T09:43:21;17.60;;;8.40;;
28529;SDS011;15737;49.760;6.632;2023-02-15T09:46:16;28.73;;;8.33;;
28529;SDS011;15737;49.760;6.632;2023-02-15T09:49:25;13.17;;;6.63;;
28529;SDS011;15737;49.760;6.632;2023-02-15T09:52:28;12.27;;;6.90;;
28529;SDS011;15737;49.760;6.632;2023-02-15T09:55:19;24.13;;;7.37;;
28529;SDS011;15737;49.760;6.632;2023-02-15T10:14:38;24.87;;;11.03;;
28529;SDS011;15737;49.760;6.632;2023-02-15T10:20:29;19.77;;;9.07;;
28529;SDS011;15737;49.760;6.632;2023-02-15T10:25:43;17.17;;;8.77;;
28529;SDS011;15737;49.760;6.632;2023-02-15T10:28:18;18.77;;;8.20;;
28529;SDS011;15737;49.760;6.632;2023-02-15T10:30:48;20.27;;;10.40;;
28529;SDS011;15737;49.760;6.632;2023-02-15T10:48:59;22.40;;;10.17;;
28529;SDS011;15737;49.760;6.632;2023-02-15T10:51:33;19.93;;;9.33;;
28529;SDS011;15737;49.760;6.632;2023-02-15T10:54:21;17.33;;;8.43;;
28529;SDS011;15737;49.760;6.632;2023-02-15T11:02:54;14.97;;;9.20;;
28529;SDS011;15737;49.760;6.632;2023-02-15T11:08:26;14.83;;;8.87;;
28529;SDS011;15737;49.760;6.632;2023-02-15T11:10:59;15.30;;;10.07;;
28529;SDS011;15737;49.760;6.632;2023-02-15T11:13:48;14.90;;;9.57;;
28529;SDS011;15737;49.760;6.632;2023-02-15T11:16:21;15.73;;;12.10;;
28529;SDS011;15737;49.760;6.632;2023-02-15T11:18:53;19.00;;;11.50;;
28529;SDS011;15737;49.760;6.632;2023-02-15T11:21:28;15.40;;;12.53;;
28529;SDS011;15737;49.760;6.632;2023-02-15T11:24:07;16.63;;;11.97;;
28529;SDS011;15737;49.760;6.632;2023-02-15T11:26:41;13.63;;;10.60;;
28529;SDS011;15737;49.760;6.632;2023-02-15T11:31:50;13.67;;;9.57;;
28529;SDS011;15737;49.760;6.632;2023-02-15T11:34:36;17.30;;;10.57;;
28529;SDS011;15737;49.760;6.632;2023-02-15T11:37:06;16.67;;;11.70;;
28529;SDS011;15737;49.760;6.632;2023-02-15T11:39:35;21.33;;;19.40;;
28529;SDS011;15737;49.760;6.632;2023-02-15T11:42:04;48.90;;;45.60;;
28529;SDS011;15737;49.760;6.632;2023-02-15T11:44:39;52.80;;;49.20;;
28529;SDS011;15737;49.760;6.632;2023-02-15T11:47:11;38.93;;;36.23;;
28529;SDS011;15737;49.760;6.632;2023-02-15T11:49:37;32.87;;;29.97;;
28529;SDS011;15737;49.760;6.632;2023-02-15T11:52:07;36.47;;;33.77;;
28529;SDS011;15737;49.760;6.632;2023-02-15T11:54:39;39.07;;;36.27;;
28529;SDS011;15737;49.760;6.632;2023-02-15T11:57:15;37.20;;;34.10;;
28529;SDS011;15737;49.760;6.632;2023-02-15T11:59:52;40.67;;;37.27;;
28529;SDS011;15737;49.760;6.632;2023-02-15T12:02:23;39.97;;;37.13;;
28529;SDS011;15737;49.760;6.632;2023-02-15T12:05:00;42.93;;;39.60;;
28529;SDS011;15737;49.760;6.632;2023-02-15T12:07:32;42.30;;;39.50;;
28529;SDS011;15737;49.760;6.632;2023-02-15T12:13:09;34.07;;;31.47;;
28529;SDS011;15737;49.760;6.632;2023-02-15T12:15:40;37.57;;;34.90;;
28529;SDS011;15737;49.760;6.632;2023-02-15T12:18:24;36.30;;;33.70;;
28529;SDS011;15737;49.760;6.632;2023-02-15T12:23:43;36.70;;;33.92;;
28529;SDS011;15737;49.760;6.632;2023-02-15T12:26:13;34.42;;;31.88;;
28529;SDS011;15737;49.760;6.632;2023-02-15T12:28:43;33.45;;;31.10;;
28529;SDS011;15737;49.760;6.632;2023-02-15T12:31:32;29.00;;;26.73;;
28529;SDS011;15737;49.760;6.632;2023-02-15T12:34:07;26.25;;;24.25;;
28529;SDS011;15737;49.760;6.632;2023-02-15T12:36:42;24.20;;;22.25;;
28529;SDS011;15737;49.760;6.632;2023-02-15T12:39:16;20.77;;;18.88;;
28529;SDS011;15737;49.760;6.632;2023-02-15T12:44:22;20.07;;;18.00;;
28529;SDS011;15737;49.760;6.632;2023-02-15T12:47:04;19.93;;;18.03;;
28529;SDS011;15737;49.760;6.632;2023-02-15T12:49:32;19.50;;;17.50;;
28529;SDS011;15737;49.760;6.632;2023-02-15T12:54:45;18.43;;;16.73;;
28529;SDS011;15737;49.760;6.632;2023-02-15T13:00:04;21.37;;;19.10;;
28529;SDS011;15737;49.760;6.632;2023-02-15T13:05:18;20.57;;;18.77;;
28529;SDS011;15737;49.760;6.632;2023-02-15T13:07:50;20.20;;;18.30;;
28529;SDS011;15737;49.760;6.632;2023-02-15T13:12:51;21.60;;;19.43;;
28529;SDS011;15737;49.760;6.632;2023-02-15T13:15:30;21.03;;;16.93;;
28529;SDS011;15737;49.760;6.632;2023-02-15T13:18:00;22.97;;;20.77;;
28529;SDS011;15737;49.760;6.632;2023-02-15T13:20:27;18.57;;;16.83;;
28529;SDS011;15737;49.760;6.632;2023-02-15T13:22:57;23.63;;;21.27;;
28529;SDS011;15737;49.760;6.632;2023-02-15T13:25:26;20.43;;;18.37;;
28529;SDS011;15737;49.760;6.632;2023-02-15T13:27:56;18.93;;;17.17;;
28529;SDS011;15737;49.760;6.632;2023-02-15T13:31:08;21.83;;;19.73;;
28529;SDS011;15737;49.760;6.632;2023-02-15T13:41:39;22.23;;;20.13;;
28529;SDS011;15737;49.760;6.632;2023-02-15T13:44:52;23.43;;;21.17;;
28529;SDS011;15737;49.760;6.632;2023-02-15T13:47:53;22.40;;;20.40;;
28529;SDS011;15737;49.760;6.632;2023-02-15T13:55:59;26.75;;;24.38;;
28529;SDS011;15737;49.760;6.632;2023-02-15T13:58:50;21.13;;;19.25;;
28529;SDS011;15737;49.760;6.632;2023-02-15T14:01:45;23.80;;;21.53;;
28529;SDS011;15737;49.760;6.632;2023-02-15T14:07:30;18.00;;;16.00;;
28529;SDS011;15737;49.760;6.632;2023-02-15T14:16:13;18.93;;;16.43;;
28529;SDS011;15737;49.760;6.632;2023-02-15T14:21:59;17.70;;;15.93;;
28529;SDS011;15737;49.760;6.632;2023-02-15T14:27:33;21.57;;;16.77;;
28529;SDS011;15737;49.760;6.632;2023-02-15T14:30:20;17.93;;;14.87;;
28529;SDS011;15737;49.760;6.632;2023-02-15T14:32:54;20.33;;;17.07;;
28529;SDS011;15737;49.760;6.632;2023-02-15T14:35:26;17.40;;;15.60;;
28529;SDS011;15737;49.760;6.632;2023-02-15T14:40:44;23.47;;;21.23;;
28529;SDS011;15737;49.760;6.632;2023-02-15T14:49:19;34.10;;;31.63;;
28529;SDS011;15737;49.760;6.632;2023-02-15T14:56:44;32.17;;;29.30;;
28529;SDS011;15737;49.760;6.632;2023-02-15T15:01:36;27.97;;;25.20;;
28529;SDS011;15737;49.760;6.632;2023-02-15T15:04:04;26.73;;;24.53;;
28529;SDS011;15737;49.760;6.632;2023-02-15T15:06:40;36.63;;;33.93;;
28529;SDS011;15737;49.760;6.632;2023-02-15T15:09:18;35.07;;;32.13;;
28529;SDS011;15737;49.760;6.632;2023-02-15T15:11:50;33.73;;;31.00;;
28529;SDS011;15737;49.760;6.632;2023-02-15T15:16:58;35.00;;;32.30;;
28529;SDS011;15737;49.760;6.632;2023-02-15T15:22:20;38.90;;;36.13;;
28529;SDS011;15737;49.760;6.632;2023-02-15T15:25:00;35.33;;;32.73;;
28529;SDS011;15737;49.760;6.632;2023-02-15T15:47:12;24.07;;;21.53;;
28529;SDS011;15737;49.760;6.632;2023-02-15T15:49:50;17.90;;;16.13;;
28529;SDS011;15737;49.760;6.632;2023-02-15T15:52:21;18.43;;;12.80;;
28529;SDS011;15737;49.760;6.632;2023-02-15T15:54:48;16.60;;;10.63;;
28529;SDS011;15737;49.760;6.632;2023-02-15T15:59:49;12.73;;;7.77;;
28529;SDS011;15737;49.760;6.632;2023-02-15T16:02:15;16.63;;;8.97;;
28529;SDS011;15737;49.760;6.632;2023-02-15T16:04:42;14.03;;;7.83;;
28529;SDS011;15737;49.760;6.632;2023-02-15T16:09:53;12.10;;;7.73;;
28529;SDS011;15737;49.760;6.632;2023-02-15T16:12:33;16.70;;;8.63;;
28529;SDS011;15737;49.760;6.632;2023-02-15T16:15:43;13.23;;;7.53;;
28529;SDS011;15737;49.760;6.632;2023-02-15T16:18:10;11.33;;;7.77;;
28529;SDS011;15737;49.760;6.632;2023-02-15T16:20:50;17.53;;;10.20;;
28529;SDS011;15737;49.760;6.632;2023-02-15T16:23:26;12.37;;;7.30;;
28529;SDS011;15737;49.760;6.632;2023-02-15T16:29:12;12.33;;;7.47;;
28529;SDS011;15737;49.760;6.632;2023-02-15T16:31:43;16.63;;;8.67;;
28529;SDS011;15737;49.760;6.632;2023-02-15T16:34:22;17.40;;;9.43;;
28529;SDS011;15737;49.760;6.632;2023-02-15T16:36:48;12.97;;;8.73;;
28529;SDS011;15737;49.760;6.632;2023-02-15T16:39:17;14.70;;;7.73;;
28529;SDS011;15737;49.760;6.632;2023-02-15T16:41:44;12.60;;;6.90;;
28529;SDS011;15737;49.760;6.632;2023-02-15T16:44:14;19.20;;;8.57;;
28529;SDS011;15737;49.760;6.632;2023-02-15T16:46:43;13.40;;;7.80;;
28529;SDS011;15737;49.760;6.632;2023-02-15T16:49:17;15.33;;;7.33;;
28529;SDS011;15737;49.760;6.632;2023-02-15T16:51:56;16.60;;;8.27;;
28529;SDS011;15737;49.760;6.632;2023-02-15T16:54:24;16.67;;;7.63;;
28529;SDS011;15737;49.760;6.632;2023-02-15T16:56:51;17.27;;;8.40;;
28529;SDS011;15737;49.760;6.632;2023-02-15T16:59:25;15.63;;;7.37;;
28529;SDS011;15737;49.760;6.632;2023-02-15T17:01:57;22.43;;;9.30;;
28529;SDS011;15737;49.760;6.632;2023-02-15T17:04:26;16.13;;;8.70;;
28529;SDS011;15737;49.760;6.632;2023-02-15T17:07:05;3.03;;;2.53;;
28529;SDS011;15737;49.760;6.632;2023-02-15T17:09:48;14.37;;;6.33;;
28529;SDS011;15737;49.760;6.632;2023-02-15T17:15:24;17.10;;;5.37;;
28529;SDS011;15737;49.760;6.632;2023-02-15T17:17:58;7.73;;;4.40;;
28529;SDS011;15737;49.760;6.632;2023-02-15T17:20:27;13.77;;;6.30;;
28529;SDS011;15737;49.760;6.632;2023-02-15T17:22:53;15.53;;;7.07;;
28529;SDS011;15737;49.760;6.632;2023-02-15T17:25:21;20.50;;;7.83;;
28529;SDS011;15737;49.760;6.632;2023-02-15T17:27:54;14.53;;;7.33;;
28529;SDS011;15737;49.760;6.632;2023-02-15T17:30:23;11.30;;;6.57;;
28529;SDS011;15737;49.760;6.632;2023-02-15T17:32:55;8.47;;;3.97;;
28529;SDS011;15737;49.760;6.632;2023-02-15T17:35:24;15.47;;;6.17;;
28529;SDS011;15737;49.760;6.632;2023-02-15T17:37:59;16.53;;;7.87;;
28529;SDS011;15737;49.760;6.632;2023-02-15T17:40:28;10.33;;;6.77;;
28529;SDS011;15737;49.760;6.632;2023-02-15T17:42:55;10.40;;;5.90;;
28529;SDS011;15737;49.760;6.632;2023-02-15T17:45:21;16.80;;;5.87;;
28529;SDS011;15737;49.760;6.632;2023-02-15T17:47:49;11.47;;;5.47;;
28529;SDS011;15737;49.760;6.632;2023-02-15T17:50:19;12.63;;;6.90;;
28529;SDS011;15737;49.760;6.632;2023-02-15T17:52:47;12.43;;;7.07;;
28529;SDS011;15737;49.760;6.632;2023-02-15T17:55:14;13.33;;;6.37;;
28529;SDS011;15737;49.760;6.632;2023-02-15T17:57:59;10.47;;;5.43;;
28529;SDS011;15737;49.760;6.632;2023-02-15T18:00:26;14.03;;;7.00;;
28529;SDS011;15737;49.760;6.632;2023-02-15T18:03:10;14.53;;;6.27;;
28529;SDS011;15737;49.760;6.632;2023-02-15T18:05:55;11.90;;;7.07;;
28529;SDS011;15737;49.760;6.632;2023-02-15T18:08:40;6.67;;;4.67;;